Accueil
METAR-TAF:

METAR-TAF

Aéroports :

Base aérienne de Kleine-Brogel

Peer, Belgique

latitude: 51-10N, longitude: 005-28E, altitude: 55 m

Observation

Le bulletin a été fait il y a 23 minutes, à 18:25 UTC
Vent 2 kt de direction variable
Température 5°C
Humidité 81%
Pression 1039 hPa
Visibilité 10 km ou plus

METAR: EBBL 271825Z AUTO VRB02KT 9999 NCD 05/02 Q1039 BLU

Heure: 19:48 (18:48 UTC)

Prévision

Le bulletin a été fait il y a 27 heures et 7 minutes, à 15:41 UTC
Prévision valable du 26 à 19 UTC au 27 à 07 UTC
Vent 6 kt de nord
Visibilité 10 km ou plus
Quelques nuages à une hauteur de 4000 ft
Evoluant progressivement
du 27 à 00 UTC au 27 à 02 UTC
Visibilité: 2000 m
brume
Temporairement
du 27 à 02 UTC au 27 à 07 UTC
Visibilité: 0500 m
brouillard

TAF: EBBL 261541Z 2619/2707 35006KT 9999 FEW040 BECMG 2700/2702 2000 BR TEMPO 2702/2707 0500 FG

Observations et prévisions météorologiques de plus de 4000 aéroports (messages METAR et TAF).

Les stations disponibles sont représentées par des disques jaunes et rouges sur la carte.

Passer la souris dessus pour voir le nom de la station.

Cliquer dessus pour voir les observations et prévisions météorologiques.

Pour changer de carte: cliquez sur les boutons verts avec une croix noire pour zoomer, sur le bouton vert avec un tiret pour effectuer un zoom arrière, ou sur les flèches vertes pour les cartes adjacentes.


METAR-TAF: